Time;durP1;ratioP1;P1;durP2;ratioP2;P2;SDS_P1;SDS_P2;PMS_P1;PMS_P2;Temp;Humidity;BMP_temperature;BMP_pressure;BME280_temperature;BME280_humidity;BME280_pressure;Samples;Min_cycle;Max_cycle;Signal;HPM_P1;HPM_P2
2023/05/06 00:00:21;;;;;;;10.60;8.18;;;;;;;15.08;46.59;101265.84;5025780;28;20040;-84
2023/05/06 00:02:50;;;;;;;12.57;8.80;;;;;;;15.07;46.41;101254.97;5025084;28;20061;-83
2023/05/06 00:05:21;;;;;;;12.98;9.05;;;;;;;15.08;46.65;101256.72;5024395;28;20108;-83
2023/05/06 00:07:55;;;;;;;11.90;8.80;;;;;;;15.04;46.78;101256.13;5009974;28;20433;-84
2023/05/06 00:10:23;;;;;;;12.48;9.02;;;;;;;15.03;46.33;101256.28;5016005;28;20520;-84
2023/05/06 00:12:51;;;;;;;10.57;7.85;;;;;;;15.02;46.67;101254.53;5011687;28;20134;-84
2023/05/06 00:15:20;;;;;;;11.85;8.65;;;;;;;15.00;46.51;101260.25;5011434;28;20069;-84
2023/05/06 00:17:48;;;;;;;13.07;9.20;;;;;;;14.99;46.86;101252.13;5011740;28;20059;-84
2023/05/06 00:20:16;;;;;;;12.23;8.70;;;;;;;14.98;46.96;101247.63;5012101;28;20037;-84
2023/05/06 00:22:45;;;;;;;12.50;9.30;;;;;;;14.97;46.40;101249.50;5015821;28;20344;-84
2023/05/06 00:25:13;;;;;;;13.20;9.57;;;;;;;14.95;46.41;101247.91;5030876;28;20052;-84
2023/05/06 00:30:27;;;;;;;19.10;9.48;;;;;;;14.92;46.88;101239.97;5013480;28;20136;-84
2023/05/06 00:32:55;;;;;;;14.07;9.80;;;;;;;14.90;46.85;101244.78;5002797;28;20584;-85
2023/05/06 00:35:27;;;;;;;12.18;8.82;;;;;;;14.88;46.55;101236.66;5014008;28;20045;-85
2023/05/06 00:38:06;;;;;;;14.52;9.63;;;;;;;14.90;47.11;101239.25;5030466;28;20045;-84
2023/05/06 00:40:34;;;;;;;13.05;9.77;;;;;;;14.86;46.91;101241.44;5023043;28;20089;-84
2023/05/06 00:43:02;;;;;;;13.85;10.02;;;;;;;14.86;46.75;101240.56;5006730;28;20061;-84
2023/05/06 00:45:30;;;;;;;14.18;9.90;;;;;;;14.85;47.31;101236.09;5031391;28;20104;-84
2023/05/06 00:47:59;;;;;;;14.77;10.73;;;;;;;14.85;46.86;101244.38;5028435;28;20485;-84
2023/05/06 00:50:28;;;;;;;17.13;10.85;;;;;;;14.83;47.42;101251.91;5036701;28;20397;-85
2023/05/06 00:52:58;;;;;;;15.93;11.05;;;;;;;14.83;47.17;101249.16;5026529;28;20108;-85
2023/05/06 00:55:27;;;;;;;19.13;11.40;;;;;;;14.82;47.29;101250.19;5033206;28;20092;-85
2023/05/06 00:57:56;;;;;;;18.30;10.02;;;;;;;14.80;47.29;101247.56;5017917;28;20564;-85
2023/05/06 01:00:25;;;;;;;19.35;10.70;;;;;;;14.77;47.27;101236.84;5022003;28;20069;-85
2023/05/06 01:02:53;;;;;;;19.30;10.63;;;;;;;14.77;46.79;101239.59;5015225;28;20057;-85
2023/05/06 01:05:23;;;;;;;18.35;10.48;;;;;;;14.75;46.87;101238.91;5036529;28;20084;-85
2023/05/06 01:07:58;;;;;;;17.00;10.70;;;;;;;14.74;47.50;101235.28;5028013;28;20054;-85
2023/05/06 01:10:35;;;;;;;19.88;10.82;;;;;;;14.72;47.08;101231.81;5019348;28;20698;-85
2023/05/06 01:13:10;;;;;;;20.65;10.95;;;;;;;14.68;47.34;101232.28;5038256;28;20057;-84
2023/05/06 01:15:44;;;;;;;15.30;10.32;;;;;;;14.66;47.21;101223.28;5027664;28;20038;-84
2023/05/06 01:18:17;;;;;;;17.92;11.27;;;;;;;14.64;47.59;101228.06;5036611;28;20038;-85
2023/05/06 01:20:49;;;;;;;15.55;10.93;;;;;;;14.62;47.60;101230.09;5021411;28;20066;-84
2023/05/06 01:23:21;;;;;;;16.53;10.57;;;;;;;14.60;48.03;101232.16;5025645;28;20072;-84
2023/05/06 01:25:50;;;;;;;17.70;11.05;;;;;;;14.57;47.01;101229.69;5034848;28;20284;-84
2023/05/06 01:28:18;;;;;;;17.05;10.85;;;;;;;14.55;47.01;101231.72;5027113;28;20038;-84
2023/05/06 01:30:57;;;;;;;15.68;10.63;;;;;;;14.56;48.21;101233.47;5033290;28;20091;-84
2023/05/06 01:33:32;;;;;;;13.07;8.88;;;;;;;14.54;47.31;101235.50;5001922;28;20456;-84
2023/05/06 01:36:10;;;;;;;13.75;9.45;;;;;;;14.54;48.13;101235.50;5016914;28;20079;-84
2023/05/06 01:38:45;;;;;;;15.85;10.00;;;;;;;14.54;47.80;101238.25;5024667;28;20104;-84
2023/05/06 01:41:16;;;;;;;15.80;9.68;;;;;;;14.51;47.79;101222.91;5009540;28;20037;-84
2023/05/06 01:43:47;;;;;;;15.52;10.38;;;;;;;14.53;47.14;101229.13;5032348;28;20033;-84
2023/05/06 01:46:19;;;;;;;15.50;10.38;;;;;;;14.54;47.70;101230.88;5019224;28;20049;-84
2023/05/06 01:48:51;;;;;;;15.20;9.97;;;;;;;14.52;47.47;101227.38;5021305;28;20053;-84
2023/05/06 01:51:21;;;;;;;15.18;10.27;;;;;;;14.52;47.73;101226.53;5021576;28;20137;-84
2023/05/06 01:53:50;;;;;;;13.93;9.93;;;;;;;14.54;47.60;101230.00;5020311;28;20144;-84
2023/05/06 01:56:18;;;;;;;14.77;9.65;;;;;;;14.53;47.07;101231.88;5033680;28;20057;-84
2023/05/06 01:58:46;;;;;;;17.20;10.88;;;;;;;14.52;47.72;101230.13;5013649;28;20046;-84
2023/05/06 02:01:15;;;;;;;16.63;10.95;;;;;;;14.52;47.21;101234.81;5011943;28;20046;-84
2023/05/06 02:03:42;;;;;;;15.73;10.93;;;;;;;14.50;47.58;101228.56;5047888;28;20052;-85
2023/05/06 02:06:10;;;;;;;15.73;10.80;;;;;;;14.49;47.31;101230.47;5013586;28;20068;-84
2023/05/06 02:08:39;;;;;;;17.35;10.68;;;;;;;14.48;47.38;101230.59;5015304;28;20046;-84
2023/05/06 02:11:09;;;;;;;16.05;10.73;;;;;;;14.48;47.06;101236.13;5025112;28;20045;-84
2023/05/06 02:13:37;;;;;;;15.35;10.82;;;;;;;14.43;47.45;101228.28;5016031;28;20147;-84
2023/05/06 02:16:08;;;;;;;15.65;10.40;;;;;;;14.41;46.84;101233.06;5014687;28;20041;-84
2023/05/06 02:18:37;;;;;;;13.98;9.75;;;;;;;14.39;46.95;101235.97;5014250;28;20042;-84
2023/05/06 02:21:05;;;;;;;14.65;9.98;;;;;;;14.40;47.43;101236.84;5015028;28;20053;-84
2023/05/06 02:23:33;;;;;;;14.75;10.20;;;;;;;14.40;47.46;101231.31;5026580;28;20045;-84
2023/05/06 02:26:01;;;;;;;14.18;9.73;;;;;;;14.39;47.55;101230.47;5022038;28;20417;-84
2023/05/06 02:28:30;;;;;;;14.60;9.95;;;;;;;14.43;47.54;101235.69;5015623;28;20576;-84
2023/05/06 02:30:58;;;;;;;15.68;10.38;;;;;;;14.42;47.54;101236.69;5028771;28;20058;-84
2023/05/06 02:33:26;;;;;;;16.92;11.05;;;;;;;14.42;47.15;101231.19;5009747;28;20483;-84
2023/05/06 02:35:54;;;;;;;15.35;10.20;;;;;;;14.44;47.05;101240.13;5015688;28;20112;-84
2023/05/06 02:38:24;;;;;;;14.95;10.18;;;;;;;14.45;47.13;101231.72;5028011;28;20053;-84
2023/05/06 02:40:53;;;;;;;15.55;10.60;;;;;;;14.42;47.02;101234.81;5014850;28;20053;-84
2023/05/06 02:43:21;;;;;;;14.00;9.43;;;;;;;14.45;47.02;101230.84;5025711;28;20073;-84
2023/05/06 02:45:51;;;;;;;14.95;10.63;;;;;;;14.42;47.15;101232.06;5010459;28;20046;-84
2023/05/06 02:48:19;;;;;;;15.45;10.40;;;;;;;14.40;46.90;101228.56;5019095;28;20114;-85
2023/05/06 02:50:46;;;;;;;15.80;10.50;;;;;;;14.38;46.51;101230.59;5005460;28;20048;-85
2023/05/06 02:53:14;;;;;;;15.43;10.82;;;;;;;14.34;46.56;101223.69;5018854;28;20046;-84
2023/05/06 02:55:42;;;;;;;14.82;10.35;;;;;;;14.32;46.81;101223.81;5020204;28;20049;-85
2023/05/06 02:58:10;;;;;;;14.95;10.07;;;;;;;14.31;46.87;101233.09;5001992;28;20048;-84
2023/05/06 03:00:38;;;;;;;17.08;10.45;;;;;;;14.28;46.89;101233.38;5006630;28;20038;-84
2023/05/06 03:03:08;;;;;;;14.43;9.70;;;;;;;14.27;47.03;101234.38;5022644;28;20051;-84
2023/05/06 03:05:36;;;;;;;14.68;10.02;;;;;;;14.25;47.25;101235.59;5030774;28;20424;-84
2023/05/06 03:08:05;;;;;;;18.00;10.52;;;;;;;14.22;47.11;101228.47;5009627;28;20052;-84
2023/05/06 03:10:33;;;;;;;17.13;11.38;;;;;;;14.21;47.34;101234.13;5026565;28;20053;-84
2023/05/06 03:13:01;;;;;;;16.30;10.40;;;;;;;14.18;47.29;101232.56;5005565;28;20072;-84
2023/05/06 03:15:30;;;;;;;16.98;10.82;;;;;;;14.16;47.42;101231.84;5014396;28;20051;-84
2023/05/06 03:17:59;;;;;;;15.60;10.88;;;;;;;14.14;47.21;101235.75;5031505;28;20048;-84
2023/05/06 03:20:29;;;;;;;17.70;10.75;;;;;;;14.13;47.49;101234.88;5013376;28;20042;-84
2023/05/06 03:22:59;;;;;;;15.93;10.15;;;;;;;14.09;47.16;101229.84;5008380;28;20046;-84
2023/05/06 03:25:27;;;;;;;19.45;11.20;;;;;;;14.07;47.30;101235.47;5008448;28;20053;-84
2023/05/06 03:27:55;;;;;;;14.75;9.32;;;;;;;14.05;47.04;101226.50;5026006;28;20050;-84
2023/05/06 03:30:23;;;;;;;16.20;10.02;;;;;;;14.01;47.37;101233.31;5010011;28;20152;-85
2023/05/06 03:32:55;;;;;;;13.20;9.05;;;;;;;13.99;47.07;101238.97;5025332;28;20042;-85
2023/05/06 03:35:30;;;;;;;14.68;9.93;;;;;;;13.99;47.26;101227.97;5014133;28;20037;-85
2023/05/06 03:38:00;;;;;;;14.65;9.32;;;;;;;13.95;47.56;101236.63;5028544;28;20057;-85
2023/05/06 03:40:36;;;;;;;16.63;9.75;;;;;;;13.93;47.12;101239.56;5005876;28;20038;-85
2023/05/06 03:43:05;;;;;;;15.27;8.63;;;;;;;13.94;47.54;101234.94;5013884;28;20053;-85
2023/05/06 03:45:33;;;;;;;13.32;8.50;;;;;;;13.93;47.12;101239.56;5029872;28;20049;-85
2023/05/06 03:48:04;;;;;;;14.15;9.25;;;;;;;13.93;47.63;101235.94;5010420;28;20056;-85
2023/05/06 03:50:35;;;;;;;12.80;8.88;;;;;;;13.93;47.62;101239.56;5001734;28;20389;-85
2023/05/06 03:53:04;;;;;;;12.20;8.02;;;;;;;13.92;47.69;101234.19;5028249;28;20049;-85
2023/05/06 03:55:34;;;;;;;13.15;9.18;;;;;;;13.90;47.26;101231.59;5013930;28;20045;-85
2023/05/06 03:58:02;;;;;;;11.75;8.13;;;;;;;13.89;47.36;101229.84;5013648;28;20581;-85
2023/05/06 04:00:30;;;;;;;11.27;7.80;;;;;;;13.89;47.37;101237.25;5012700;28;20061;-85
2023/05/06 04:02:57;;;;;;;10.68;7.43;;;;;;;13.88;47.54;101230.00;5009699;28;20068;-85
2023/05/06 04:05:32;;;;;;;10.98;7.55;;;;;;;13.87;47.13;101233.75;5002195;28;20037;-85
2023/05/06 04:08:03;;;;;;;10.02;7.03;;;;;;;13.88;46.93;101235.50;5024758;28;20064;-85
2023/05/06 04:10:31;;;;;;;11.23;7.95;;;;;;;13.85;47.31;101233.94;5006233;28;20053;-85
2023/05/06 04:13:06;;;;;;;9.07;7.05;;;;;;;13.84;46.96;101229.44;5012174;28;20141;-85
2023/05/06 04:15:40;;;;;;;9.40;6.90;;;;;;;13.83;47.37;101226.81;4999076;28;20121;-85
2023/05/06 04:18:17;;;;;;;10.05;7.05;;;;;;;13.83;47.37;101233.19;5023474;28;20544;-85
2023/05/06 04:20:53;;;;;;;11.00;7.30;;;;;;;13.81;46.93;101226.97;5011218;28;20128;-84
2023/05/06 04:23:22;;;;;;;10.52;7.15;;;;;;;13.82;47.36;101225.97;5018044;28;20049;-85
2023/05/06 04:25:51;;;;;;;12.43;8.52;;;;;;;13.79;47.29;101226.25;5015111;28;20115;-84
2023/05/06 04:28:21;;;;;;;10.35;7.10;;;;;;;13.79;47.36;101234.50;5010031;28;20060;-84
2023/05/06 04:30:51;;;;;;;9.80;6.65;;;;;;;13.80;47.03;101235.38;5018384;28;20079;-85
2023/05/06 04:33:24;;;;;;;10.90;7.47;;;;;;;13.79;46.92;101245.50;5026559;28;20044;-85
2023/05/06 04:35:54;;;;;;;10.43;7.40;;;;;;;13.78;46.87;101249.25;5035141;28;20321;-85
2023/05/06 04:38:29;;;;;;;11.27;7.53;;;;;;;13.80;47.25;101243.63;5020637;28;20072;-85
2023/05/06 04:40:57;;;;;;;10.13;7.45;;;;;;;13.77;47.33;101253.06;5028711;28;20062;-84
2023/05/06 04:43:26;;;;;;;12.77;8.27;;;;;;;13.77;47.18;101253.06;5004850;28;20038;-85
2023/05/06 04:46:00;;;;;;;12.30;8.40;;;;;;;13.75;46.95;101257.81;5010981;28;20052;-85
2023/05/06 04:48:32;;;;;;;10.57;7.93;;;;;;;13.73;47.15;101264.47;5017138;28;20632;-84
2023/05/06 04:51:03;;;;;;;11.73;7.32;;;;;;;13.75;46.83;101267.94;5010352;28;20055;-85
2023/05/06 04:53:33;;;;;;;10.60;7.35;;;;;;;13.75;46.98;101262.44;5015066;28;20080;-84
2023/05/06 04:56:01;;;;;;;12.82;8.30;;;;;;;13.73;47.14;101269.97;5008918;28;20132;-84
2023/05/06 04:58:29;;;;;;;12.43;8.65;;;;;;;13.73;46.88;101270.84;5014256;28;20140;-84
2023/05/06 05:00:58;;;;;;;11.80;8.20;;;;;;;13.73;47.38;101270.84;5020846;28;20064;-84
2023/05/06 05:03:25;;;;;;;12.60;8.27;;;;;;;13.73;47.31;101280.97;5029310;28;20049;-84
2023/05/06 05:05:56;;;;;;;12.02;8.25;;;;;;;13.73;47.15;101272.72;5005295;28;20539;-84
2023/05/06 05:08:26;;;;;;;13.30;8.48;;;;;;;13.72;47.63;101279.22;5015806;28;20279;-85
2023/05/06 05:10:55;;;;;;;11.05;7.78;;;;;;;13.74;47.30;101282.72;5031967;28;21321;-84
2023/05/06 05:13:25;;;;;;;10.88;7.50;;;;;;;13.73;47.47;101281.84;5028055;28;20073;-85
2023/05/06 05:15:55;;;;;;;10.43;7.03;;;;;;;13.76;47.78;101284.31;5020309;28;20069;-84
2023/05/06 05:18:27;;;;;;;11.10;7.88;;;;;;;13.78;47.90;101285.03;5011034;28;20128;-84
2023/05/06 05:21:04;;;;;;;11.55;7.30;;;;;;;13.82;48.13;101278.22;5013280;28;20074;-85
2023/05/06 05:23:34;;;;;;;10.70;7.07;;;;;;;13.87;48.13;101281.41;5023372;28;20136;-84
2023/05/06 05:26:03;;;;;;;13.13;9.10;;;;;;;13.94;48.41;101279.78;5029236;28;20060;-85
2023/05/06 05:28:32;;;;;;;10.68;7.05;;;;;;;13.97;48.20;101282.28;5013189;28;20084;-84
2023/05/06 05:31:03;;;;;;;10.18;7.50;;;;;;;14.04;48.73;101288.06;5010492;28;20400;-84
2023/05/06 05:33:33;;;;;;;11.73;7.95;;;;;;;14.09;48.30;101294.00;5012340;28;20045;-85
2023/05/06 05:36:04;;;;;;;11.63;7.78;;;;;;;14.16;48.88;101291.53;5009637;28;20060;-84
2023/05/06 05:38:32;;;;;;;12.45;8.10;;;;;;;14.23;48.69;101290.78;5021461;28;20126;-85
2023/05/06 05:41:00;;;;;;;11.50;8.27;;;;;;;14.28;48.33;101293.94;5023212;28;20045;-84
2023/05/06 05:43:30;;;;;;;11.18;7.75;;;;;;;14.35;48.61;101291.50;5017334;28;20409;-84
2023/05/06 05:46:00;;;;;;;9.20;6.82;;;;;;;14.40;48.46;101291.91;5009757;28;20100;-84
2023/05/06 05:48:31;;;;;;;10.38;7.18;;;;;;;14.47;48.92;101300.44;5026987;28;20084;-84
2023/05/06 05:51:01;;;;;;;10.75;7.38;;;;;;;14.53;49.03;101302.63;5018370;28;20048;-85
2023/05/06 05:53:30;;;;;;;11.63;8.05;;;;;;;14.61;49.02;101305.50;5011525;28;20045;-84
2023/05/06 05:55:58;;;;;;;9.75;6.95;;;;;;;14.69;48.73;101302.84;5012360;28;20057;-84
2023/05/06 05:58:26;;;;;;;10.25;7.53;;;;;;;14.77;49.08;101308.47;5023294;28;20050;-83
2023/05/06 06:00:58;;;;;;;11.98;7.47;;;;;;;14.88;48.88;101307.44;5013272;28;20136;-83
2023/05/06 06:03:27;;;;;;;10.95;7.90;;;;;;;14.93;48.89;101300.44;5026462;28;20050;-83
2023/05/06 06:05:55;;;;;;;10.55;7.82;;;;;;;15.00;48.53;101298.84;5015011;28;20045;-83
2023/05/06 06:08:25;;;;;;;12.35;8.70;;;;;;;15.07;48.55;101302.72;5026412;28;20443;-85
2023/05/06 06:10:55;;;;;;;11.80;8.90;;;;;;;15.10;48.19;101298.75;5021488;28;20075;-83
2023/05/06 06:13:35;;;;;;;12.65;8.73;;;;;;;15.15;47.69;101304.69;5016379;28;20057;-83
2023/05/06 06:16:07;;;;;;;11.65;8.43;;;;;;;15.19;47.92;101299.72;5010108;28;20068;-83
2023/05/06 06:18:37;;;;;;;11.30;7.95;;;;;;;15.19;47.91;101306.09;5013060;28;20452;-84
2023/05/06 06:21:08;;;;;;;10.93;8.35;;;;;;;15.25;47.58;101301.88;5020342;28;20049;-83
2023/05/06 06:23:36;;;;;;;9.50;8.02;;;;;;;15.25;47.84;101297.25;5005539;28;20051;-85
2023/05/06 06:26:06;;;;;;;11.50;8.50;;;;;;;15.28;47.98;101302.44;5006112;28;20117;-84
2023/05/06 06:28:34;;;;;;;8.73;7.22;;;;;;;15.34;48.39;101306.50;5006655;28;20049;-83
2023/05/06 06:31:02;;;;;;;10.27;7.72;;;;;;;15.40;47.94;101309.50;5008940;28;20436;-83
2023/05/06 06:33:31;;;;;;;10.10;7.68;;;;;;;15.50;48.06;101303.94;5019691;28;20081;-83
2023/05/06 06:35:59;;;;;;;10.10;7.63;;;;;;;15.54;48.57;101310.88;5002947;28;20044;-83
2023/05/06 06:38:27;;;;;;;10.02;7.78;;;;;;;15.62;48.23;101313.72;5009301;28;20476;-83
2023/05/06 06:40:54;;;;;;;11.82;8.52;;;;;;;15.70;48.15;101310.16;5027976;28;20081;-84
2023/05/06 06:43:23;;;;;;;9.13;7.45;;;;;;;15.80;48.12;101313.72;5008749;28;20045;-83
2023/05/06 06:45:55;;;;;;;9.75;7.32;;;;;;;15.88;47.98;101313.81;5015870;28;20402;-84
2023/05/06 06:48:23;;;;;;;9.13;7.22;;;;;;;15.96;48.18;101310.25;5012397;28;20046;-84
2023/05/06 06:50:52;;;;;;;10.25;7.72;;;;;;;16.07;48.13;101312.78;5002650;28;20045;-84
2023/05/06 06:53:20;;;;;;;11.85;8.13;;;;;;;16.13;47.79;101315.75;5006503;28;20089;-83
2023/05/06 06:55:48;;;;;;;10.60;7.90;;;;;;;16.20;47.58;101319.66;5001783;28;20033;-84
2023/05/06 06:58:16;;;;;;;11.50;8.10;;;;;;;16.27;47.57;101317.09;5009150;28;20041;-83
2023/05/06 07:00:44;;;;;;;10.48;7.45;;;;;;;16.34;47.13;101318.19;5000870;28;20118;-83
2023/05/06 07:03:14;;;;;;;8.52;6.82;;;;;;;16.41;47.58;101318.44;5024323;28;20038;-83
2023/05/06 07:05:42;;;;;;;8.98;6.95;;;;;;;16.48;47.39;101314.88;5018861;28;20050;-83
2023/05/06 07:08:12;;;;;;;8.70;6.78;;;;;;;16.57;46.98;101313.88;5027790;28;20043;-83
2023/05/06 07:10:40;;;;;;;7.95;6.28;;;;;;;16.65;47.57;101318.59;5006672;28;20048;-84
2023/05/06 07:13:08;;;;;;;8.98;6.50;;;;;;;16.74;47.71;101312.09;5015884;28;20045;-83
2023/05/06 07:15:36;;;;;;;9.13;6.55;;;;;;;16.84;47.50;101315.59;5010867;28;20082;-83
2023/05/06 07:18:04;;;;;;;7.97;5.95;;;;;;;16.94;47.15;101313.56;5025495;28;20089;-83
2023/05/06 07:20:32;;;;;;;9.05;6.35;;;;;;;17.06;47.00;101318.84;5023567;28;20050;-85
2023/05/06 07:23:00;;;;;;;8.40;6.55;;;;;;;17.16;46.83;101317.66;5009603;28;20045;-85
2023/05/06 07:25:30;;;;;;;8.77;6.30;;;;;;;17.28;46.63;101315.50;5022230;28;20500;-83
2023/05/06 07:27:58;;;;;;;9.63;6.30;;;;;;;17.35;46.95;101322.94;5005457;28;20057;-83
2023/05/06 07:30:26;;;;;;;8.52;6.32;;;;;;;17.45;46.25;101322.81;5010350;28;20505;-83
2023/05/06 07:32:54;;;;;;;7.65;5.35;;;;;;;17.53;46.25;101314.53;5019402;28;20072;-84
2023/05/06 07:35:22;;;;;;;8.77;5.97;;;;;;;17.62;46.18;101321.81;5010507;28;20313;-84
2023/05/06 07:38:13;;;;;;;8.25;5.55;;;;;;;17.74;45.17;101325.16;5016541;28;20045;-84
2023/05/06 07:40:44;;;;;;;7.07;5.28;;;;;;;17.84;45.59;101323.09;5010135;28;20197;-85
2023/05/06 07:46:42;;;;;;;6.28;4.57;;;;;;;18.01;45.31;101327.63;5019864;28;20498;-84
2023/05/06 07:49:19;;;;;;;6.07;4.63;;;;;;;18.12;44.41;101327.31;5014131;28;20091;-85
2023/05/06 07:51:48;;;;;;;6.88;4.18;;;;;;;18.19;44.95;101332.13;5010521;28;20049;-83
2023/05/06 07:54:19;;;;;;;7.20;4.63;;;;;;;18.23;45.05;101339.06;5025612;28;20136;-85
2023/05/06 07:57:14;;;;;;;7.57;4.28;;;;;;;18.35;43.37;101334.91;5006033;28;20140;-84
2023/05/06 07:59:48;;;;;;;6.13;4.43;;;;;;;18.39;44.30;101333.53;5003251;28;21242;-85
2023/05/06 08:02:16;;;;;;;5.22;3.60;;;;;;;18.45;44.15;101328.16;5024394;28;20046;-83
2023/05/06 08:05:19;;;;;;;5.78;3.40;;;;;;;18.51;42.90;101329.38;5012566;28;20048;-82
2023/05/06 08:07:52;;;;;;;5.25;3.25;;;;;;;18.54;43.30;101329.03;5002589;28;20060;-82
2023/05/06 08:10:21;;;;;;;4.32;2.83;;;;;;;18.62;42.97;101328.16;5024096;28;20033;-83
2023/05/06 08:12:51;;;;;;;3.83;2.72;;;;;;;18.69;43.11;101335.59;5016335;28;20042;-83
2023/05/06 08:15:20;;;;;;;3.85;2.60;;;;;;;18.73;42.84;101328.66;5022872;28;20050;-82
2023/05/06 08:17:48;;;;;;;4.22;3.00;;;;;;;18.78;42.61;101336.44;5006739;28;20066;-84
2023/05/06 08:20:16;;;;;;;4.45;2.90;;;;;;;18.82;42.45;101335.03;5023304;28;20124;-83
2023/05/06 08:22:44;;;;;;;4.93;3.17;;;;;;;18.88;42.76;101337.13;5024758;28;20053;-83
2023/05/06 08:25:12;;;;;;;5.90;3.17;;;;;;;18.92;42.63;101327.41;5024659;28;20046;-83
2023/05/06 08:27:40;;;;;;;4.75;2.80;;;;;;;18.99;42.38;101327.53;5004237;28;20111;-82
2023/05/06 08:30:11;;;;;;;4.57;2.88;;;;;;;19.08;42.18;101330.13;5008141;28;20068;-82
2023/05/06 08:32:39;;;;;;;4.57;2.88;;;;;;;19.14;42.21;101334.06;4993665;28;20096;-83
2023/05/06 08:35:08;;;;;;;4.38;2.70;;;;;;;19.21;42.00;101340.69;5018591;28;20102;-83
2023/05/06 08:37:36;;;;;;;4.55;2.80;;;;;;;19.28;41.59;101336.16;5010457;28;20108;-84
2023/05/06 08:40:07;;;;;;;4.35;2.70;;;;;;;19.38;41.52;101333.16;5015610;28;20748;-84
2023/05/06 08:42:37;;;;;;;3.70;2.53;;;;;;;19.47;41.27;101332.91;5036647;28;20056;-83
2023/05/06 08:45:11;;;;;;;4.05;2.88;;;;;;;19.54;40.63;101333.09;5011455;28;20042;-83
2023/05/06 08:47:40;;;;;;;4.72;3.55;;;;;;;19.60;40.92;101326.78;5025561;28;20428;-83
2023/05/06 08:50:10;;;;;;;5.18;3.75;;;;;;;19.70;40.70;101330.22;5001408;28;20046;-83
2023/05/06 08:52:38;;;;;;;6.13;4.68;;;;;;;19.76;40.56;101331.38;5012025;28;20129;-82
2023/05/06 08:55:08;;;;;;;7.28;4.43;;;;;;;19.83;40.50;101330.47;4999471;28;20396;-83
2023/05/06 08:57:37;;;;;;;5.45;4.15;;;;;;;19.89;40.22;101326.94;5014834;28;20049;-83
2023/05/06 09:00:09;;;;;;;6.38;4.25;;;;;;;19.95;40.41;101329.00;5017473;28;20650;-83
2023/05/06 09:02:39;;;;;;;7.15;4.63;;;;;;;20.02;40.17;101323.59;5015558;28;20049;-82
2023/05/06 09:05:10;;;;;;;6.13;4.28;;;;;;;20.05;40.04;101323.22;5027221;28;20073;-83
2023/05/06 09:07:39;;;;;;;5.03;3.80;;;;;;;20.11;39.97;101318.84;4999286;28;20514;-83
2023/05/06 09:10:12;;;;;;;5.57;4.72;;;;;;;20.17;39.76;101327.28;5030297;28;20093;-84
2023/05/06 09:12:39;;;;;;;;;;;;;;;19.91;40.00;101324.03;5016059;28;20084;-84
2023/05/06 09:15:09;;;;;;;4.38;3.15;;;;;;;20.21;39.82;101311.97;5012404;28;20349;-84
2023/05/06 09:17:39;;;;;;;5.30;3.58;;;;;;;20.30;39.24;101315.53;5027385;28;20213;-84
2023/05/06 09:20:12;;;;;;;3.70;2.40;;;;;;;20.36;38.53;101312.91;5027492;28;20046;-83
2023/05/06 09:22:41;;;;;;;4.93;3.15;;;;;;;20.38;39.20;101315.47;5012303;28;20045;-84
2023/05/06 09:25:10;;;;;;;4.47;2.67;;;;;;;20.43;38.82;101312.13;5031326;28;20059;-83
2023/05/06 09:27:40;;;;;;;4.32;2.65;;;;;;;20.49;38.75;101319.72;5029442;28;20432;-83
2023/05/06 09:30:10;;;;;;;3.78;2.63;;;;;;;20.53;38.71;101315.53;5005374;28;20496;-83
2023/05/06 09:32:40;;;;;;;3.10;2.00;;;;;;;20.56;38.05;101310.44;4989353;28;20528;-84
2023/05/06 09:35:10;;;;;;;3.72;2.03;;;;;;;20.58;37.98;101310.25;5029067;28;20301;-83
2023/05/06 09:37:39;;;;;;;3.33;1.90;;;;;;;20.60;38.27;101303.47;5011633;28;20119;-84
2023/05/06 09:40:09;;;;;;;4.65;2.20;;;;;;;20.65;37.35;101300.13;5013157;28;20108;-83
2023/05/06 09:42:38;;;;;;;2.50;1.65;;;;;;;20.67;37.58;101301.66;5029858;28;20080;-83
2023/05/06 09:45:08;;;;;;;3.17;2.00;;;;;;;20.70;37.37;101295.69;5019864;28;20417;-83
2023/05/06 09:47:37;;;;;;;3.17;1.80;;;;;;;20.73;37.38;101298.13;5024414;28;20054;-84
2023/05/06 09:50:09;;;;;;;2.90;1.90;;;;;;;20.79;36.81;101290.91;5016286;28;20513;-83
2023/05/06 09:52:37;;;;;;;3.33;1.92;;;;;;;20.78;37.60;101281.69;5009630;28;20148;-83
2023/05/06 09:55:06;;;;;;;3.40;2.10;;;;;;;20.84;37.25;101282.88;5025029;28;20045;-83
2023/05/06 09:57:37;;;;;;;3.70;1.90;;;;;;;20.86;37.49;101283.53;5011142;28;20509;-83
2023/05/06 10:00:11;;;;;;;4.15;2.08;;;;;;;20.97;37.06;101285.84;5006677;28;20335;-84
2023/05/06 10:02:41;;;;;;;4.32;1.70;;;;;;;20.99;37.26;101280.94;4965883;28;20057;-83
2023/05/06 10:05:12;;;;;;;2.30;1.33;;;;;;;21.06;36.60;101283.81;5009138;28;20045;-82
2023/05/06 10:07:41;;;;;;;3.40;2.00;;;;;;;21.05;36.81;101280.16;4999795;28;20057;-81
2023/05/06 10:10:12;;;;;;;3.50;2.08;;;;;;;21.11;36.44;101281.31;5021658;28;20041;-83
2023/05/06 10:12:40;;;;;;;4.00;2.17;;;;;;;21.13;36.04;101276.41;5028171;28;20428;-84
2023/05/06 10:15:09;;;;;;;2.67;1.92;;;;;;;21.18;36.13;101279.50;5008638;28;20531;-84
2023/05/06 10:17:39;;;;;;;2.35;1.58;;;;;;;21.20;36.49;101282.06;5012639;28;20053;-83
2023/05/06 10:20:10;;;;;;;3.30;1.60;;;;;;;21.22;36.24;101283.59;5025053;28;20100;-83
2023/05/06 10:22:52;;;;;;;2.17;1.50;;;;;;;21.26;35.38;101273.00;5025682;28;20045;-83
2023/05/06 10:25:29;;;;;;;2.67;1.23;;;;;;;21.26;35.22;101275.78;5026961;28;20058;-84
2023/05/06 10:27:58;;;;;;;2.58;1.40;;;;;;;21.27;36.04;101274.72;5023310;28;20066;-84
2023/05/06 10:30:28;;;;;;;2.70;1.42;;;;;;;21.29;35.67;101270.66;5009571;28;20045;-83
2023/05/06 10:32:59;;;;;;;3.17;1.75;;;;;;;21.32;35.22;101273.06;5001757;28;20172;-83
2023/05/06 10:35:42;;;;;;;2.47;1.45;;;;;;;21.34;34.29;101264.53;5017259;28;20100;-83
2023/05/06 10:38:18;;;;;;;3.05;1.58;;;;;;;21.32;34.66;101273.06;5006581;28;20508;-83
2023/05/06 10:40:46;;;;;;;4.22;1.70;;;;;;;21.32;35.02;101278.63;5001444;28;20069;-84
2023/05/06 10:43:23;;;;;;;4.55;2.10;;;;;;;21.36;34.79;101270.75;5005490;28;20033;-83
2023/05/06 10:45:59;;;;;;;3.78;2.00;;;;;;;21.36;34.47;101262.38;5023386;28;20050;-84
2023/05/06 10:48:27;;;;;;;3.53;2.17;;;;;;;21.35;35.21;101257.91;5025324;28;20109;-84
2023/05/06 10:51:20;;;;;;;3.10;1.75;;;;;;;21.36;34.91;101256.81;5007122;28;20508;-83
2023/05/06 10:54:05;;;;;;;3.03;1.95;;;;;;;21.35;34.95;101255.13;5025951;28;20879;-83
2023/05/06 10:56:35;;;;;;;3.60;1.48;;;;;;;21.34;35.48;101261.75;5026513;28;20050;-83
2023/05/06 10:59:07;;;;;;;3.65;1.80;;;;;;;21.36;35.30;101254.91;5025847;28;20957;-83
2023/05/06 11:01:36;;;;;;;3.20;1.77;;;;;;;21.34;35.15;101250.59;5005077;28;20066;-84
2023/05/06 11:04:08;;;;;;;3.55;1.83;;;;;;;21.39;34.64;101251.72;5013377;28;20068;-83
2023/05/06 11:06:38;;;;;;;;;;;;;;;21.06;35.88;101242.94;5011776;28;20552;-83
2023/05/06 11:09:15;;;;;;;2.13;1.30;;;;;;;21.36;34.58;101240.13;5007977;28;19921;-83
2023/05/06 11:11:50;;;;;;;3.47;1.70;;;;;;;21.38;35.40;101241.66;5012323;28;20136;-83
2023/05/06 11:14:34;;;;;;;4.05;1.40;;;;;;;21.40;34.58;101242.31;5014082;28;20045;-83
2023/05/06 11:17:28;;;;;;;3.33;1.50;;;;;;;21.39;35.13;101246.16;5018731;28;20061;-82
2023/05/06 11:20:21;;;;;;;3.08;1.88;;;;;;;21.38;34.17;101238.88;5018216;28;20056;-83
2023/05/06 11:22:49;;;;;;;3.80;1.58;;;;;;;21.34;34.65;101239.47;5020626;28;20133;-84
2023/05/06 11:25:43;;;;;;;4.13;1.67;;;;;;;21.35;34.00;101235.63;5020770;28;20580;-82
2023/05/06 11:28:13;;;;;;;2.55;1.50;;;;;;;21.31;34.20;101239.84;5000094;28;20076;-83
2023/05/06 11:30:42;;;;;;;2.45;1.40;;;;;;;21.30;34.51;101238.13;5017894;28;20068;-84
2023/05/06 11:33:18;;;;;;;4.07;1.80;;;;;;;21.30;33.67;101232.56;5013419;28;20487;-83
2023/05/06 11:35:48;;;;;;;3.20;1.95;;;;;;;21.23;34.04;101232.44;4994143;28;20042;-84
2023/05/06 11:38:18;;;;;;;2.83;1.70;;;;;;;21.20;34.11;101224.47;5023942;28;20030;-83
2023/05/06 11:40:49;;;;;;;2.65;1.55;;;;;;;21.21;33.80;101225.34;5002850;28;20037;-82